Aérodrome :
LOGIN :

S'inscrire | Disclaimer

   EN    FR    IT 

 










Légende :    VFR   VFR Marginal   IFR   IFR Intensif   IFR Très Intensif
Visi : 
Plafond : 
>= 8 km
>= 3000ft
5 à 8 km
1000 à 3000 ft
1500m à 5 km
500 à 1000 ft
800 à 1500m
200 à 500 ft
< 800m
< 200 ft
Symboles :   Orages  Brouillard  Fortes neiges  Fortes précipitations  Vent > 20 kt
SIGMETs :   Divers  Orages  Givrage  Turbulence  Onde Orograph.  Cendres Volcan.







- Altitude de l'aérodrome : 327 ft
- Code IATA : BHX
- Voir les cartes d'approche


EGBB - Birmingham

DERNIER METAR :
  • 220720Z 22009KT 170V250 9999 BKN013 20/17 Q1019

METARs EXPIRÉS :
  • 220650Z 22009G19KT 180V270 9999 BKN012 20/17 Q1019
  • 220620Z 20007KT 170V240 9999 BKN011 19/17 Q1019
  • 220550Z 22009KT 180V250 9999 BKN009 18/17 Q1019
  • 220520Z 21008KT 9999 BKN009 18/16 Q1018

TAF TAF EGBB
Valide du 22 à 06h jusqu'au 23 à 06h UTC


220504Z 2206/2306 21011KT 9999 BKN009
TEMPO 2206/2208 SCT012
BECMG 2208/2211 FEW035
BECMG 2219/2222 VRB03KT
PROB30 2302/2306 8000 BKN008
ATIS : +44 121 780 0910
Pas de NOTAMs connus pour ce terrain.
1 SIGMET publié pour la FIR London (EGTT) :
 
Onde orographique forte
EGTT SIGMET 02 VALID 220600/221000 EGRR
EGTT LONDON FIR SEV MTW FCST WI N5500 E00140 - N5224 W00120 - N5221 W00530 - N5500 W00530 - N5500 E00140 FL040/240 MOV N 05KT NC=



MET'MAP, la Météo Aéronautique d'un coup d'oeil ! - Copyright ORBIFLY Décembre 2007 - Disclaimer

ORBIFLY MET'MAP TEAM :

Programmation & Développement : Alexandra Zaïnal
Conception & Développement : Baudouin d'Aumeries
Co-Programmation & Développement : Marc-Olivier Méhu
Soutien technique & logistique : Manuel Goepfert

Contact : metmap@orbifly.com




SOURCES & CREDITS :

   NOAA